createdAt,value
2023-05-05T00:00:10.158Z,95164.00
2023-05-05T00:01:10.155Z,95166.00
2023-05-05T00:02:10.229Z,95162.00
2023-05-05T00:03:10.318Z,95174.00
2023-05-05T00:04:10.416Z,95166.00
2023-05-05T00:05:10.309Z,95160.00
2023-05-05T00:06:10.365Z,95162.00
2023-05-05T00:07:10.374Z,95162.00
2023-05-05T00:08:10.408Z,95176.00
2023-05-05T00:09:10.432Z,95164.00
2023-05-05T00:10:10.545Z,95164.00
2023-05-05T00:11:10.498Z,95174.00
2023-05-05T00:12:10.528Z,95174.00
2023-05-05T00:13:10.695Z,95166.00
2023-05-05T00:14:10.747Z,95174.00
2023-05-05T00:15:10.650Z,95166.00
2023-05-05T00:16:10.682Z,95162.00
2023-05-05T00:17:10.783Z,95164.00
2023-05-05T00:18:10.753Z,95166.00
2023-05-05T00:19:11.192Z,95166.00
2023-05-05T00:20:10.810Z,95164.00
2023-05-05T00:21:10.870Z,95166.00
2023-05-05T00:22:10.891Z,95166.00
2023-05-05T00:23:10.920Z,95166.00
2023-05-05T00:24:10.945Z,95166.00
2023-05-05T00:25:10.993Z,95166.00
2023-05-05T00:26:11.036Z,95174.00
2023-05-05T00:27:11.087Z,95166.00
2023-05-05T00:28:11.113Z,95166.00
2023-05-05T00:29:11.143Z,95166.00
2023-05-05T00:30:11.184Z,95174.00
2023-05-05T00:31:11.246Z,95164.00
2023-05-05T00:32:11.285Z,95164.00
2023-05-05T00:33:11.310Z,95166.00
2023-05-05T00:34:11.393Z,95164.00
2023-05-05T00:35:11.389Z,95166.00
2023-05-05T00:36:11.428Z,95164.00
2023-05-05T00:37:11.419Z,95174.00
2023-05-05T00:38:11.459Z,95166.00
2023-05-05T00:39:11.537Z,95174.00
2023-05-05T00:40:11.560Z,95166.00
2023-05-05T00:41:11.571Z,95166.00
2023-05-05T00:42:11.601Z,95174.00
2023-05-05T00:43:11.662Z,95174.00
2023-05-05T00:44:11.682Z,95176.00
2023-05-05T00:45:11.730Z,95166.00
2023-05-05T00:46:11.817Z,95174.00
2023-05-05T00:47:11.832Z,95166.00
2023-05-05T00:48:11.899Z,95166.00
2023-05-05T00:49:11.938Z,95174.00
2023-05-05T00:50:11.937Z,95164.00
2023-05-05T00:51:11.965Z,95174.00
2023-05-05T00:52:12.003Z,95174.00
2023-05-05T00:53:12.045Z,95174.00
2023-05-05T00:54:12.051Z,95166.00
2023-05-05T00:55:12.186Z,95166.00
2023-05-05T00:56:12.122Z,95166.00
2023-05-05T00:57:12.175Z,95176.00
2023-05-05T00:58:12.228Z,95178.00
2023-05-05T00:59:12.299Z,95178.00
2023-05-05T01:00:12.345Z,95178.00
2023-05-05T01:01:12.437Z,95174.00
2023-05-05T01:02:12.393Z,95176.00
2023-05-05T01:03:12.480Z,95174.00
2023-05-05T01:04:12.426Z,95166.00
2023-05-05T01:05:12.585Z,95162.00
2023-05-05T01:06:12.524Z,95162.00
2023-05-05T01:07:12.571Z,95160.00
2023-05-05T01:08:12.591Z,95166.00
2023-05-05T01:09:12.629Z,95162.00
2023-05-05T01:10:19.674Z,95160.00
2023-05-05T01:11:13.666Z,95160.00
2023-05-05T01:12:12.612Z,95162.00
2023-05-05T01:13:12.779Z,95162.00
2023-05-05T01:14:12.648Z,95160.00
2023-05-05T01:15:12.604Z,95158.00
2023-05-05T01:16:12.659Z,95158.00
2023-05-05T01:17:12.595Z,95158.00
2023-05-05T01:18:12.601Z,95158.00
2023-05-05T01:19:12.597Z,95158.00
2023-05-05T01:20:12.610Z,95160.00
2023-05-05T01:21:12.652Z,95160.00
2023-05-05T01:22:12.585Z,95164.00
2023-05-05T01:23:12.606Z,95162.00
2023-05-05T01:24:12.674Z,95162.00
2023-05-05T01:25:12.675Z,95158.00
2023-05-05T01:26:12.742Z,95158.00
2023-05-05T01:27:12.711Z,95160.00
2023-05-05T01:28:12.754Z,95166.00
2023-05-05T01:29:12.799Z,95162.00
2023-05-05T01:30:12.884Z,95166.00
2023-05-05T01:31:13.011Z,95166.00
2023-05-05T01:32:12.932Z,95164.00
2023-05-05T01:33:12.960Z,95166.00
2023-05-05T01:34:13.014Z,95174.00
2023-05-05T01:35:13.051Z,95174.00
2023-05-05T01:36:13.076Z,95174.00
2023-05-05T01:37:13.172Z,95174.00
2023-05-05T01:38:13.158Z,95166.00
2023-05-05T01:39:13.198Z,95174.00
2023-05-05T01:40:13.225Z,95166.00
2023-05-05T01:41:13.223Z,95178.00
2023-05-05T01:42:13.270Z,95176.00
2023-05-05T01:43:13.301Z,95176.00
2023-05-05T01:44:13.363Z,95178.00
2023-05-05T01:45:13.380Z,95176.00
2023-05-05T01:46:13.599Z,95178.00
2023-05-05T01:47:13.471Z,95174.00
2023-05-05T01:48:13.514Z,95174.00
2023-05-05T01:49:13.510Z,95174.00
2023-05-05T01:50:13.564Z,95180.00
2023-05-05T01:51:13.620Z,95180.00
2023-05-05T01:52:13.641Z,95182.00
2023-05-05T01:53:13.680Z,95180.00
2023-05-05T01:54:13.759Z,95182.00
2023-05-05T01:55:13.760Z,95182.00
2023-05-05T01:56:13.775Z,95182.00
2023-05-05T01:57:13.809Z,95182.00
2023-05-05T01:58:13.848Z,95182.00
2023-05-05T01:59:13.913Z,95182.00
2023-05-05T02:00:13.931Z,95184.00
2023-05-05T02:01:14.013Z,95184.00
2023-05-05T02:02:14.030Z,95186.00
2023-05-05T02:03:14.095Z,95186.00
2023-05-05T02:04:14.076Z,95184.00
2023-05-05T02:05:14.141Z,95184.00
2023-05-05T02:06:14.149Z,95182.00
2023-05-05T02:07:14.210Z,95178.00
2023-05-05T02:08:14.254Z,95180.00
2023-05-05T02:09:14.228Z,95180.00
2023-05-05T02:10:14.282Z,95182.00
2023-05-05T02:11:14.337Z,95184.00
2023-05-05T02:12:14.395Z,95188.00
2023-05-05T02:13:14.454Z,95184.00
2023-05-05T02:14:14.437Z,95186.00
2023-05-05T02:15:14.489Z,95188.00
2023-05-05T02:16:14.603Z,95188.00
2023-05-05T02:17:14.528Z,95190.00
2023-05-05T02:18:14.585Z,95190.00
2023-05-05T02:19:14.610Z,95192.00
2023-05-05T02:20:14.667Z,95192.00
2023-05-05T02:21:14.694Z,95188.00
2023-05-05T02:22:14.748Z,95188.00
2023-05-05T02:23:14.778Z,95192.00
2023-05-05T02:24:14.792Z,95190.00
2023-05-05T02:25:14.845Z,95194.00
2023-05-05T02:26:14.929Z,95192.00
2023-05-05T02:27:14.920Z,95190.00
2023-05-05T02:28:14.962Z,95194.00
2023-05-05T02:29:14.998Z,95188.00
2023-05-05T02:30:15.045Z,95194.00
2023-05-05T02:31:15.125Z,95194.00
2023-05-05T02:32:15.073Z,95192.00
2023-05-05T02:33:15.157Z,95194.00
2023-05-05T02:34:15.162Z,95194.00
2023-05-05T02:35:15.223Z,95196.00
2023-05-05T02:36:15.215Z,95194.00
2023-05-05T02:37:15.324Z,95194.00
2023-05-05T02:38:15.349Z,95194.00
2023-05-05T02:39:15.372Z,95196.00
2023-05-05T02:40:15.348Z,95196.00
2023-05-05T02:41:15.415Z,95198.00
2023-05-05T02:42:15.455Z,95200.00
2023-05-05T02:43:15.537Z,95202.00
2023-05-05T02:44:15.546Z,95200.00
2023-05-05T02:45:15.587Z,95200.00
2023-05-05T02:46:15.622Z,95202.00
2023-05-05T02:47:15.687Z,95204.00
2023-05-05T02:48:15.672Z,95202.00
2023-05-05T02:49:15.727Z,95202.00
2023-05-05T02:50:15.758Z,95200.00
2023-05-05T02:51:15.820Z,95200.00
2023-05-05T02:52:15.863Z,95198.00
2023-05-05T02:53:15.896Z,95202.00
2023-05-05T02:54:15.925Z,95202.00
2023-05-05T02:55:15.973Z,95202.00
2023-05-05T02:56:15.990Z,95204.00
2023-05-05T02:57:16.078Z,95202.00
2023-05-05T02:58:16.129Z,95202.00
2023-05-05T02:59:16.538Z,95200.00
2023-05-05T03:00:16.156Z,95204.00
2023-05-05T03:01:16.241Z,95202.00
2023-05-05T03:02:16.212Z,95202.00
2023-05-05T03:03:16.404Z,95204.00
2023-05-05T03:04:16.250Z,95204.00
2023-05-05T03:05:16.320Z,95205.00
2023-05-05T03:06:16.530Z,95207.00
2023-05-05T03:07:16.398Z,95207.00
2023-05-05T03:08:16.454Z,95207.00
2023-05-05T03:09:16.457Z,95207.00
2023-05-05T03:10:16.503Z,95209.00
2023-05-05T03:11:16.532Z,95209.00
2023-05-05T03:12:16.592Z,95207.00
2023-05-05T03:13:16.646Z,95207.00
2023-05-05T03:14:16.642Z,95207.00
2023-05-05T03:15:16.719Z,95207.00
2023-05-05T03:16:16.796Z,95204.00
2023-05-05T03:17:16.800Z,95204.00
2023-05-05T03:18:16.831Z,95202.00
2023-05-05T03:19:16.862Z,95202.00
2023-05-05T03:20:16.872Z,95200.00
2023-05-05T03:21:16.982Z,95202.00
2023-05-05T03:22:16.957Z,95200.00
2023-05-05T03:23:17.037Z,95202.00
2023-05-05T03:24:17.150Z,95204.00
2023-05-05T03:25:17.082Z,95200.00
2023-05-05T03:26:17.172Z,95202.00
2023-05-05T03:27:17.161Z,95204.00
2023-05-05T03:28:17.201Z,95202.00
2023-05-05T03:29:17.297Z,95200.00
2023-05-05T03:30:17.274Z,95202.00
2023-05-05T03:31:17.385Z,95204.00
2023-05-05T03:32:17.338Z,95202.00
2023-05-05T03:33:17.413Z,95198.00
2023-05-05T03:34:17.459Z,95200.00
2023-05-05T03:35:17.441Z,95204.00
2023-05-05T03:36:17.527Z,95204.00
2023-05-05T03:37:17.538Z,95205.00
2023-05-05T03:38:17.581Z,95204.00
2023-05-05T03:39:17.645Z,95204.00
2023-05-05T03:40:17.671Z,95207.00
2023-05-05T03:41:17.700Z,95205.00
2023-05-05T03:42:17.783Z,95205.00
2023-05-05T03:43:17.834Z,95204.00
2023-05-05T03:44:17.814Z,95205.00
2023-05-05T03:45:17.922Z,95207.00
2023-05-05T03:46:18.034Z,95205.00
2023-05-05T03:47:17.960Z,95205.00
2023-05-05T03:48:18.004Z,95205.00
2023-05-05T03:49:18.043Z,95205.00
2023-05-05T03:50:18.074Z,95207.00
2023-05-05T03:51:18.144Z,95207.00
2023-05-05T03:52:18.167Z,95205.00
2023-05-05T03:53:18.192Z,95204.00
2023-05-05T03:54:18.258Z,95202.00
2023-05-05T03:55:18.274Z,95202.00
2023-05-05T03:56:18.320Z,95202.00
2023-05-05T03:57:18.361Z,95200.00
2023-05-05T03:58:18.393Z,95202.00
2023-05-05T03:59:18.449Z,95200.00
2023-05-05T04:00:18.527Z,95200.00
2023-05-05T04:01:18.533Z,95196.00
2023-05-05T04:02:18.990Z,95209.00
2023-05-05T04:03:18.744Z,95211.00
2023-05-05T04:04:18.679Z,95207.00
2023-05-05T04:05:18.682Z,95211.00
2023-05-05T04:06:18.723Z,95213.00
2023-05-05T04:07:18.759Z,95213.00
2023-05-05T04:08:18.785Z,95215.00
2023-05-05T04:09:18.826Z,95217.00
2023-05-05T04:10:18.890Z,95217.00
2023-05-05T04:11:18.897Z,95217.00
2023-05-05T04:12:18.915Z,95215.00
2023-05-05T04:13:18.937Z,95215.00
2023-05-05T04:14:19.071Z,95217.00
2023-05-05T04:15:19.045Z,95219.00
2023-05-05T04:16:19.132Z,95215.00
2023-05-05T04:17:19.111Z,95217.00
2023-05-05T04:18:19.156Z,95217.00
2023-05-05T04:19:19.194Z,95215.00
2023-05-05T04:20:19.234Z,95219.00
2023-05-05T04:21:19.236Z,95215.00
2023-05-05T04:22:19.357Z,95217.00
2023-05-05T04:23:19.326Z,95219.00
2023-05-05T04:24:19.389Z,95217.00
2023-05-05T04:25:19.538Z,95217.00
2023-05-05T04:26:19.440Z,95221.00
2023-05-05T04:27:19.519Z,95217.00
2023-05-05T04:28:21.588Z,95219.00
2023-05-05T04:29:19.578Z,95215.00
2023-05-05T04:30:19.684Z,95207.00
2023-05-05T04:31:19.744Z,95204.00
2023-05-05T04:32:19.767Z,95207.00
2023-05-05T04:33:19.853Z,95207.00
2023-05-05T04:34:19.872Z,95209.00
2023-05-05T04:35:19.886Z,95209.00
2023-05-05T04:36:19.943Z,95213.00
2023-05-05T04:37:20.005Z,95213.00
2023-05-05T04:38:20.135Z,95213.00
2023-05-05T04:39:20.117Z,95213.00
2023-05-05T04:40:20.233Z,95215.00
2023-05-05T04:41:20.362Z,95219.00
2023-05-05T04:42:20.333Z,95221.00
2023-05-05T04:43:20.367Z,95221.00
2023-05-05T04:44:20.413Z,95221.00
2023-05-05T04:45:20.530Z,95221.00
2023-05-05T04:46:20.674Z,95223.00
2023-05-05T04:47:20.571Z,95219.00
2023-05-05T04:48:20.638Z,95223.00
2023-05-05T04:49:20.683Z,95227.00
2023-05-05T04:50:20.746Z,95225.00
2023-05-05T04:51:20.823Z,95225.00
2023-05-05T04:52:20.845Z,95223.00
2023-05-05T04:53:20.924Z,95223.00
2023-05-05T04:54:20.962Z,95223.00
2023-05-05T04:55:21.009Z,95223.00
2023-05-05T04:56:21.108Z,95225.00
2023-05-05T04:57:21.080Z,95225.00
2023-05-05T04:58:21.160Z,95225.00
2023-05-05T04:59:21.201Z,95225.00
2023-05-05T05:00:21.247Z,95225.00
2023-05-05T05:01:21.317Z,95227.00
2023-05-05T05:02:21.467Z,95227.00
2023-05-05T05:03:21.499Z,95225.00
2023-05-05T05:04:21.470Z,95229.00
2023-05-05T05:05:21.485Z,95231.00
2023-05-05T05:06:21.523Z,95233.00
2023-05-05T05:07:21.588Z,95233.00
2023-05-05T05:08:21.648Z,95233.00
2023-05-05T05:09:21.705Z,95233.00
2023-05-05T05:10:21.703Z,95235.00
2023-05-05T05:11:21.766Z,95235.00
2023-05-05T05:12:21.804Z,95235.00
2023-05-05T05:13:21.922Z,95233.00
2023-05-05T05:14:21.886Z,95235.00
2023-05-05T05:15:21.947Z,95237.00
2023-05-05T05:16:21.992Z,95237.00
2023-05-05T05:18:19.715Z,95239.00
2023-05-05T05:19:19.664Z,95237.00
2023-05-05T05:20:19.699Z,95237.00
2023-05-05T05:21:19.666Z,95237.00
2023-05-05T05:22:19.673Z,95235.00
2023-05-05T05:23:19.695Z,95233.00
2023-05-05T05:24:19.745Z,95233.00
2023-05-05T05:25:19.813Z,95233.00
2023-05-05T05:26:19.814Z,95233.00
2023-05-05T05:27:19.879Z,95233.00
2023-05-05T05:28:19.941Z,95235.00
2023-05-05T05:29:19.974Z,95233.00
2023-05-05T05:30:20.006Z,95233.00
2023-05-05T05:31:20.064Z,95233.00
2023-05-05T05:32:20.127Z,95231.00
2023-05-05T05:33:20.183Z,95233.00
2023-05-05T05:34:20.203Z,95235.00
2023-05-05T05:35:20.229Z,95231.00
2023-05-05T05:36:20.259Z,95231.00
2023-05-05T05:37:20.361Z,95227.00
2023-05-05T05:38:20.379Z,95233.00
2023-05-05T05:39:20.421Z,95231.00
2023-05-05T05:40:20.423Z,95231.00
2023-05-05T05:41:20.427Z,95231.00
2023-05-05T05:42:20.906Z,95233.00
2023-05-05T05:43:20.511Z,95233.00
2023-05-05T05:44:20.583Z,95233.00
2023-05-05T05:45:20.674Z,95233.00
2023-05-05T05:46:20.788Z,95233.00
2023-05-05T05:47:20.746Z,95237.00
2023-05-05T05:48:20.831Z,95237.00
2023-05-05T05:49:20.895Z,95248.00
2023-05-05T05:50:20.942Z,95252.00
2023-05-05T05:51:21.001Z,95248.00
2023-05-05T05:52:21.058Z,95248.00
2023-05-05T05:53:21.118Z,95248.00
2023-05-05T05:54:21.435Z,95246.00
2023-05-05T05:55:21.171Z,95248.00
2023-05-05T05:56:21.167Z,95248.00
2023-05-05T05:57:21.431Z,95250.00
2023-05-05T05:58:21.173Z,95250.00
2023-05-05T05:59:21.159Z,95241.00
2023-05-05T06:00:21.143Z,95241.00
2023-05-05T06:01:21.202Z,95241.00
2023-05-05T06:02:21.335Z,95239.00
2023-05-05T06:03:21.469Z,95241.00
2023-05-05T06:04:21.467Z,95243.00
2023-05-05T06:05:21.466Z,95241.00
2023-05-05T06:06:21.480Z,95239.00
2023-05-05T06:07:21.567Z,95243.00
2023-05-05T06:08:23.055Z,95243.00
2023-05-05T06:09:21.598Z,95246.00
2023-05-05T06:10:27.893Z,95246.00
2023-05-05T06:11:22.567Z,95243.00
2023-05-05T06:12:21.584Z,95246.00
2023-05-05T06:13:21.599Z,95243.00
2023-05-05T06:14:21.586Z,95246.00
2023-05-05T06:15:21.542Z,95244.00
2023-05-05T06:16:21.602Z,95244.00
2023-05-05T06:17:21.546Z,95244.00
2023-05-05T06:18:21.610Z,95244.00
2023-05-05T06:19:21.552Z,95243.00
2023-05-05T06:20:21.538Z,95241.00
2023-05-05T06:21:21.884Z,95239.00
2023-05-05T06:22:21.533Z,95237.00
2023-05-05T06:23:21.530Z,95237.00
2023-05-05T06:24:21.548Z,95241.00
2023-05-05T06:25:21.547Z,95237.00
2023-05-05T06:26:21.555Z,95239.00
2023-05-05T06:27:21.565Z,95237.00
2023-05-05T06:28:21.893Z,95235.00
2023-05-05T06:29:21.622Z,95233.00
2023-05-05T06:30:21.914Z,95239.00
2023-05-05T06:31:21.711Z,95241.00
2023-05-05T06:32:21.726Z,95227.00
2023-05-05T06:33:21.707Z,95229.00
2023-05-05T06:34:21.711Z,95229.00
2023-05-05T06:35:21.759Z,95225.00
2023-05-05T06:36:21.801Z,95221.00
2023-05-05T06:37:21.846Z,95219.00
2023-05-05T06:38:21.832Z,95219.00
2023-05-05T06:39:21.887Z,95217.00
2023-05-05T06:40:22.415Z,95215.00
2023-05-05T06:41:21.986Z,95215.00
2023-05-05T06:42:21.976Z,95215.00
2023-05-05T06:43:22.129Z,95213.00
2023-05-05T06:44:22.112Z,95213.00
2023-05-05T06:45:22.215Z,95213.00
2023-05-05T06:46:22.291Z,95211.00
2023-05-05T06:47:22.268Z,95211.00
2023-05-05T06:48:22.335Z,95209.00
2023-05-05T06:49:22.387Z,95205.00
2023-05-05T06:50:22.431Z,95205.00
2023-05-05T06:51:22.484Z,95205.00
2023-05-05T06:52:22.925Z,95205.00
2023-05-05T06:53:22.931Z,95207.00
2023-05-05T06:54:22.631Z,95204.00
2023-05-05T06:55:22.920Z,95207.00
2023-05-05T06:56:22.887Z,95211.00
2023-05-05T06:57:22.827Z,95207.00
2023-05-05T06:58:22.892Z,95207.00
2023-05-05T06:59:22.955Z,95209.00
2023-05-05T07:00:23.074Z,95205.00
2023-05-05T07:01:23.095Z,95205.00
2023-05-05T07:02:24.088Z,95205.00
2023-05-05T07:03:23.235Z,95204.00
2023-05-05T07:04:23.398Z,95205.00
2023-05-05T07:05:23.109Z,95204.00
2023-05-05T07:06:23.119Z,95204.00
2023-05-05T07:07:23.075Z,95202.00
2023-05-05T07:08:23.432Z,95202.00
2023-05-05T07:09:23.088Z,95200.00
2023-05-05T07:10:23.042Z,95200.00
2023-05-05T07:11:23.101Z,95200.00
2023-05-05T07:12:23.036Z,95196.00
2023-05-05T07:13:23.413Z,95198.00
2023-05-05T07:14:24.368Z,95196.00
2023-05-05T07:15:27.406Z,95198.00
2023-05-05T07:16:24.155Z,95194.00
2023-05-05T07:17:23.132Z,95192.00
2023-05-05T07:18:23.079Z,95192.00
2023-05-05T07:19:23.005Z,95192.00
2023-05-05T07:20:23.004Z,95188.00
2023-05-05T07:21:23.007Z,95188.00
2023-05-05T07:22:23.022Z,95186.00
2023-05-05T07:23:22.981Z,95184.00
2023-05-05T07:24:23.012Z,95182.00
2023-05-05T07:25:22.998Z,95180.00
2023-05-05T07:26:23.025Z,95178.00
2023-05-05T07:27:23.018Z,95180.00
2023-05-05T07:28:23.450Z,95178.00
2023-05-05T07:29:23.124Z,95180.00
2023-05-05T07:30:23.383Z,95180.00
2023-05-05T07:31:23.165Z,95176.00
2023-05-05T07:32:23.372Z,95178.00
2023-05-05T07:33:23.249Z,95174.00
2023-05-05T07:34:23.309Z,95174.00
2023-05-05T07:35:23.410Z,95174.00
2023-05-05T07:36:23.431Z,95174.00
2023-05-05T07:37:23.486Z,95164.00
2023-05-05T07:38:23.950Z,95166.00
2023-05-05T07:39:24.015Z,95162.00
2023-05-05T07:40:23.974Z,95162.00
2023-05-05T07:41:23.503Z,95158.00
2023-05-05T07:42:23.526Z,95158.00
2023-05-05T07:43:23.515Z,95176.00
2023-05-05T07:44:23.921Z,95166.00
2023-05-05T07:45:23.935Z,95162.00
2023-05-05T07:46:23.585Z,95162.00
2023-05-05T07:47:23.565Z,95160.00
2023-05-05T07:48:23.770Z,95158.00
2023-05-05T07:49:23.692Z,95156.00
2023-05-05T07:50:23.915Z,95154.00
2023-05-05T07:51:23.794Z,95152.00
2023-05-05T07:52:37.365Z,95154.00
2023-05-05T07:53:24.843Z,95151.00
2023-05-05T07:54:23.835Z,95152.00
2023-05-05T07:55:23.828Z,95152.00
2023-05-05T07:56:23.851Z,95149.00
2023-05-05T07:57:23.827Z,95152.00
2023-05-05T07:58:24.491Z,95147.00
2023-05-05T07:59:23.843Z,95147.00
2023-05-05T08:00:23.850Z,95145.00
2023-05-05T08:01:23.799Z,95147.00
2023-05-05T08:02:23.934Z,95141.00
2023-05-05T08:03:23.948Z,95147.00
2023-05-05T08:04:23.962Z,95143.00
2023-05-05T08:05:23.893Z,95143.00
2023-05-05T08:06:23.920Z,95145.00
2023-05-05T08:07:23.998Z,95145.00
2023-05-05T08:08:24.059Z,95143.00
2023-05-05T08:09:24.050Z,95141.00
2023-05-05T08:10:24.179Z,95143.00
2023-05-05T08:11:24.133Z,95139.00
2023-05-05T08:12:24.168Z,95139.00
2023-05-05T08:13:24.189Z,95141.00
2023-05-05T08:14:24.231Z,95139.00
2023-05-05T08:15:24.251Z,95135.00
2023-05-05T08:16:24.310Z,95133.00
2023-05-05T08:17:24.292Z,95135.00
2023-05-05T08:18:24.320Z,95131.00
2023-05-05T08:19:29.280Z,95131.00
2023-05-05T08:20:25.521Z,95125.00
2023-05-05T08:21:24.312Z,95127.00
2023-05-05T08:22:24.283Z,95129.00
2023-05-05T08:23:24.303Z,95123.00
2023-05-05T08:24:24.304Z,95125.00
2023-05-05T08:25:24.323Z,95105.00
2023-05-05T08:26:24.318Z,95109.00
2023-05-05T08:27:24.289Z,95109.00
2023-05-05T08:28:24.280Z,95109.00
2023-05-05T08:29:24.434Z,95107.00
2023-05-05T08:30:24.332Z,95105.00
2023-05-05T08:31:24.330Z,95104.00
2023-05-05T08:32:24.265Z,95105.00
2023-05-05T08:33:24.260Z,95102.00
2023-05-05T08:34:24.281Z,95100.00
2023-05-05T08:35:24.272Z,95100.00
2023-05-05T08:36:24.467Z,95098.00
2023-05-05T08:37:24.444Z,95096.00
2023-05-05T08:38:24.404Z,95100.00
2023-05-05T08:39:24.464Z,95096.00
2023-05-05T08:40:24.523Z,95090.00
2023-05-05T08:41:24.564Z,95092.00
2023-05-05T08:42:36.252Z,95084.00
2023-05-05T08:43:26.315Z,95090.00
2023-05-05T08:44:24.639Z,95084.00
2023-05-05T08:45:24.580Z,95082.00
2023-05-05T08:46:24.943Z,95080.00
2023-05-05T08:47:24.681Z,95080.00
2023-05-05T08:48:24.609Z,95078.00
2023-05-05T08:49:24.571Z,95076.00
2023-05-05T08:50:24.541Z,95078.00
2023-05-05T08:51:24.584Z,95072.00
2023-05-05T08:52:24.778Z,95072.00
2023-05-05T08:53:24.540Z,95072.00
2023-05-05T08:54:24.942Z,95070.00
2023-05-05T08:55:24.574Z,95072.00
2023-05-05T08:56:24.608Z,95068.00
2023-05-05T08:57:24.586Z,95068.00
2023-05-05T08:58:25.948Z,95066.00
2023-05-05T08:59:24.643Z,95068.00
2023-05-05T09:00:24.702Z,95064.00
2023-05-05T09:01:24.791Z,95064.00
2023-05-05T09:02:24.842Z,95060.00
2023-05-05T09:03:24.936Z,95062.00
2023-05-05T09:04:24.934Z,95060.00
2023-05-05T09:05:25.022Z,95058.00
2023-05-05T09:06:25.028Z,95057.00
2023-05-05T09:07:25.060Z,95053.00
2023-05-05T09:08:25.290Z,95055.00
2023-05-05T09:09:25.179Z,95053.00
2023-05-05T09:10:25.251Z,95053.00
2023-05-05T09:11:25.300Z,95055.00
2023-05-05T09:12:25.467Z,95057.00
2023-05-05T09:13:25.398Z,95049.00
2023-05-05T09:14:25.428Z,95051.00
2023-05-05T09:15:25.491Z,95049.00
2023-05-05T09:16:25.584Z,95047.00
2023-05-05T09:17:25.688Z,95047.00
2023-05-05T09:18:25.930Z,95041.00
2023-05-05T09:19:25.943Z,95039.00
2023-05-05T09:20:26.012Z,95037.00
2023-05-05T09:21:25.698Z,95037.00
2023-05-05T09:22:25.771Z,95035.00
2023-05-05T09:23:25.940Z,95035.00
2023-05-05T09:24:25.887Z,95031.00
2023-05-05T09:25:25.822Z,95033.00
2023-05-05T09:26:25.860Z,95033.00
2023-05-05T09:27:26.012Z,95031.00
2023-05-05T09:28:25.886Z,95033.00
2023-05-05T09:29:25.878Z,95029.00
2023-05-05T09:30:25.900Z,95027.00
2023-05-05T09:31:26.112Z,95025.00
2023-05-05T09:32:26.573Z,95023.00
2023-05-05T09:33:25.961Z,95019.00
2023-05-05T09:34:25.957Z,95021.00
2023-05-05T09:35:26.034Z,95019.00
2023-05-05T09:36:26.474Z,95016.00
2023-05-05T09:37:26.050Z,95021.00
2023-05-05T09:38:26.461Z,95016.00
2023-05-05T09:39:26.139Z,95016.00
2023-05-05T09:40:26.213Z,95018.00
2023-05-05T09:41:26.198Z,95016.00
2023-05-05T09:42:26.200Z,95013.00
2023-05-05T09:43:26.269Z,95013.00
2023-05-05T09:44:26.274Z,95011.00
2023-05-05T09:45:26.281Z,95008.00
2023-05-05T09:46:26.314Z,95006.00
2023-05-05T09:47:29.822Z,95008.00
2023-05-05T09:48:26.421Z,95006.00
2023-05-05T09:49:26.301Z,95006.00
2023-05-05T09:50:26.315Z,95006.00
2023-05-05T09:51:26.346Z,95004.00
2023-05-05T09:52:26.274Z,95002.00
2023-05-05T09:53:26.476Z,95000.00
2023-05-05T09:54:26.281Z,95002.00
2023-05-05T09:55:26.263Z,94998.00
2023-05-05T09:56:26.289Z,94996.00
2023-05-05T09:57:26.264Z,94998.00
2023-05-05T09:58:26.369Z,94996.00
2023-05-05T09:59:26.319Z,94996.00
2023-05-05T10:00:26.239Z,94996.00
2023-05-05T10:01:26.252Z,94994.00
2023-05-05T10:02:26.273Z,94998.00
2023-05-05T10:03:26.220Z,94994.00
2023-05-05T10:04:26.243Z,94994.00
2023-05-05T10:05:26.275Z,94990.00
2023-05-05T10:06:26.196Z,94988.00
2023-05-05T10:07:26.189Z,94988.00
2023-05-05T10:08:26.154Z,94988.00
2023-05-05T10:09:26.174Z,94990.00
2023-05-05T10:10:28.569Z,94986.00
2023-05-05T10:11:26.180Z,94986.00
2023-05-05T10:12:26.159Z,94980.00
2023-05-05T10:13:26.150Z,94982.00
2023-05-05T10:14:26.124Z,94980.00
2023-05-05T10:15:26.101Z,94978.00
2023-05-05T10:16:27.523Z,94976.00
2023-05-05T10:17:26.221Z,94972.00
2023-05-05T10:18:26.212Z,94971.00
2023-05-05T10:19:26.141Z,94969.00
2023-05-05T10:20:26.110Z,94965.00
2023-05-05T10:21:26.097Z,94963.00
2023-05-05T10:22:26.986Z,94959.00
2023-05-05T10:23:26.123Z,94959.00
2023-05-05T10:24:26.063Z,94959.00
2023-05-05T10:25:26.075Z,94957.00
2023-05-05T10:26:26.039Z,94953.00
2023-05-05T10:27:26.049Z,94955.00
2023-05-05T10:28:26.125Z,94955.00
2023-05-05T10:29:26.072Z,94953.00
2023-05-05T10:30:26.056Z,94953.00
2023-05-05T10:31:26.893Z,94951.00
2023-05-05T10:32:50.230Z,94949.00
2023-05-05T10:33:32.149Z,94945.00
2023-05-05T10:34:27.070Z,94943.00
2023-05-05T10:35:26.010Z,94939.00
2023-05-05T10:36:26.019Z,94941.00
2023-05-05T10:37:26.487Z,94937.00
2023-05-05T10:38:26.800Z,94935.00
2023-05-05T10:39:25.975Z,94933.00
2023-05-05T10:40:25.952Z,94931.00
2023-05-05T10:41:25.988Z,94929.00
2023-05-05T10:42:25.956Z,94927.00
2023-05-05T10:43:25.971Z,94925.00
2023-05-05T10:44:26.069Z,94925.00
2023-05-05T10:45:26.035Z,94923.00
2023-05-05T10:46:25.996Z,94921.00
2023-05-05T10:47:25.950Z,94919.00
2023-05-05T10:48:25.927Z,94910.00
2023-05-05T10:49:25.894Z,94910.00
2023-05-05T10:50:25.910Z,94910.00
2023-05-05T10:51:35.947Z,94908.00
2023-05-05T10:52:26.878Z,94908.00
2023-05-05T10:53:25.899Z,94908.00
2023-05-05T10:54:25.926Z,94902.00
2023-05-05T10:55:25.977Z,94898.00
2023-05-05T10:56:25.866Z,94898.00
2023-05-05T10:57:25.993Z,94894.00
2023-05-05T10:58:25.818Z,94890.00
2023-05-05T10:59:25.831Z,94890.00
2023-05-05T11:00:25.994Z,94894.00
2023-05-05T11:01:25.924Z,94888.00
2023-05-05T11:02:26.064Z,94884.00
2023-05-05T11:03:25.902Z,94886.00
2023-05-05T11:04:25.809Z,94886.00
2023-05-05T11:05:25.802Z,94884.00
2023-05-05T11:06:25.849Z,94880.00
2023-05-05T11:07:25.903Z,94880.00
2023-05-05T11:08:25.928Z,94877.00
2023-05-05T11:09:25.977Z,94877.00
2023-05-05T11:10:25.996Z,94877.00
2023-05-05T11:11:26.002Z,94871.00
2023-05-05T11:12:26.053Z,94869.00
2023-05-05T11:13:26.098Z,94871.00
2023-05-05T11:14:26.497Z,94867.00
2023-05-05T11:15:26.158Z,94865.00
2023-05-05T11:16:26.274Z,94863.00
2023-05-05T11:17:26.182Z,94859.00
2023-05-05T11:18:26.210Z,94859.00
2023-05-05T11:19:26.491Z,94855.00
2023-05-05T11:20:26.226Z,94853.00
2023-05-05T11:21:26.507Z,94849.00
2023-05-05T11:22:26.332Z,94847.00
2023-05-05T11:23:26.298Z,94847.00
2023-05-05T11:24:26.385Z,94845.00
2023-05-05T11:25:26.353Z,94843.00
2023-05-05T11:26:26.371Z,94841.00
2023-05-05T11:27:26.363Z,94837.00
2023-05-05T11:28:26.374Z,94835.00
2023-05-05T11:29:26.452Z,94837.00
2023-05-05T11:30:26.406Z,94835.00
2023-05-05T11:31:26.442Z,94833.00
2023-05-05T11:32:26.537Z,94830.00
2023-05-05T11:33:26.485Z,94830.00
2023-05-05T11:34:27.041Z,94830.00
2023-05-05T11:35:26.492Z,94830.00
2023-05-05T11:36:26.528Z,94827.00
2023-05-05T11:37:26.500Z,94824.00
2023-05-05T11:38:26.517Z,94822.00
2023-05-05T11:39:26.595Z,94822.00
2023-05-05T11:40:26.555Z,94822.00
2023-05-05T11:41:26.574Z,94820.00
2023-05-05T11:42:26.668Z,94816.00
2023-05-05T11:43:26.611Z,94814.00
2023-05-05T11:44:26.651Z,94812.00
2023-05-05T11:45:26.644Z,94808.00